Figridge, Texas
Current Conditions -  °F | °C
As of 6:15 AM on Saturday 20 Dec 2014 (Local Time) from KBMT Reporting Station
Haze Haze  
Wind Chill: 45°   Ceiling: 300
Heat Index: 48°   Visibility: 3mi
Dew Point: 48°   Wind: 8mph
Humidity: 100%   Direction: 10°N
Pressure: 30.16"   Gusts: NA
Location:  29.7905°N, 94.3844°W
Report Text: KBMT 201215Z AUTO 01007KT 3SM BR OVC003 09/09 A3016 RMK AO2 T00900090
Loading
Personal Weather Stations






























Interactive Weather Map New forecast layout! Learn more

10-Day Weather Forecast

Advertisements
Track Severe Weather on mobile